Latest Coastal Weather Observations for Gladstone

IDQ60701

Issued at 10:31 pm EST Thursday 26 May 2016 (issued every 10 minutes, with the page automatically refreshed every 10 minutes)

About coastal observations | Map of coastal stations | Coastal observations for QLD | Marine services | Other Formats
Station Details ID: 039123 Name: GLADSTONE RADAR Lat: -23.86 Lon: 151.26 Height: 74.5 m
Data from the previous 72 hours. | See also: Recent months at Gladstone
Date/Time
EST
Temp

°C
Wind Pressure Rain
since 9am
mm
Weather Cloud Vis
km
Sea
Height
m
Swell
Dir
 
Speed
knots
Gust
knots
hPa Trend Height
m
Period
s
Dir
26/10:30pm 22.6 NW 9 16 1012.4 - 0.0 - - - - - - -
26/10:00pm 22.7 NNW 10 17 1012.2 - 0.0 - - - - - - -
26/09:30pm 22.7 NNW 11 17 1012.3 - 0.0 - - - - - - -
26/09:00pm 22.8 NNW 9 15 1012.7 - 0.0 - - - - - - -
26/08:30pm 22.6 NNW 7 13 1012.9 - 0.0 - - - - - - -
26/08:00pm 22.6 NNW 8 13 1013.3 - 0.0 - - - - - - -
26/07:30pm 22.6 NNW 7 12 1013.3 - 0.0 - - - - - - -
26/07:00pm 22.7 N 7 15 1013.1 - 0.0 - - - - - - -
26/06:30pm 22.8 N 6 10 1012.9 - 0.0 - - - - - - -
26/06:00pm 23.0 N 7 12 1012.8 - 0.0 - - - - - - -
26/05:30pm 23.3 N 7 12 1012.5 - 0.0 - - - - - - -
26/05:00pm 23.7 N 7 12 1012.0 - 0.0 - - - - - - -
26/04:30pm 24.8 NNE 8 13 1011.4 - 0.0 - - - - - - -
26/04:00pm 25.7 NNE 7 11 1011.6 - 0.0 - - - - - - -
26/03:30pm 26.6 NNE 8 15 1011.3 - 0.0 - - - - - - -
26/03:00pm 27.0 NNE 7 14 1011.3 - 0.0 - - - - - - -
26/02:30pm 28.2 NNE 6 11 1012.1 - 0.0 - - - - - - -
26/02:00pm 29.0 NW 5 12 1012.7 - 0.0 - - - - - - -
26/01:30pm 28.2 WNW 7 11 1013.0 - 0.0 - - - - - - -
26/01:00pm 28.0 NNW 5 11 1013.6 - 0.0 - - - - - - -
26/12:30pm 28.1 N 5 11 1014.0 - 0.0 - - - - - - -
26/12:00pm 28.2 N 6 14 1014.6 - 0.0 - - - - - - -
26/11:30am 27.1 NNW 5 12 1015.4 - 0.0 - - - - - - -
26/11:00am 25.5 NW 6 10 1016.0 - 0.0 - - - - - - -
26/10:30am 25.2 NNW 5 10 1016.5 - 0.0 - - - - - - -
26/10:00am 24.1 NW 4 6 1016.8 - 0.0 - - - - - - -
26/09:30am 23.6 NNW 3 5 1017.1 - 0.0 - - - - - - -
26/09:00am 22.2 CALM 0 2 1017.1 - 0.0 - - - - - - -
26/08:30am 20.8 CALM 0 0 1017.1 - 0.0 - - - - - - -
26/08:00am 20.1 CALM 0 0 1016.9 - 0.0 - - - - - - -
26/07:30am 19.8 CALM 0 0 1016.7 - 0.0 - - - - - - -
26/07:00am 19.2 CALM 0 0 1016.6 - 0.0 - - - - - - -
26/06:30am 18.7 WSW 1 3 1016.6 - 0.0 - - - - - - -
26/06:00am 19.1 CALM 0 0 1016.2 - 0.0 - - - - - - -
26/05:30am 18.9 CALM 0 0 1016.1 - 0.0 - - - - - - -
26/05:00am 19.2 CALM 0 0 1015.9 - 0.0 - - - - - - -
26/04:30am 19.4 SSE 3 3 1015.9 - 0.0 - - - - - - -
26/04:00am 19.3 SSE 1 3 1015.9 - 0.0 - - - - - - -
26/03:30am 19.4 SSW 3 4 1016.1 - 0.0 - - - - - - -
26/03:00am 19.1 SW 4 5 1016.2 - 0.0 - - - - - - -
26/02:30am 19.0 SW 4 6 1016.3 - 0.0 - - - - - - -
26/02:00am 19.2 SW 3 4 1016.4 - 0.0 - - - - - - -
26/01:30am 18.9 SW 3 5 1016.7 - 0.0 - - - - - - -
26/01:00am 19.6 SSE 5 5 1016.7 - 0.0 - - - - - - -
26/12:30am 20.0 SSE 4 5 1016.9 - 0.0 - - - - - - -
26/12:00am 19.8 S 4 4 1017.1 - 0.0 - - - - - - -
 
Date/Time
EST
Temp

°C
Wind Pressure Rain
since 9am
mm
Weather Cloud Vis
km
Sea
Height
m
Swell
Dir
 
Speed
knots
Gust
knots
hPa Trend Height
m
Period
s
Dir
25/11:30pm 20.0 SSE 2 4 1017.2 - 0.0 - - - - - - -
25/11:00pm 20.3 E 2 4 1017.4 - 0.0 - - - - - - -
25/10:30pm 20.3 E 4 6 1017.4 - 0.0 - - - - - - -
25/10:00pm 20.0 E 5 6 1017.3 - 0.0 - - - - - - -
25/09:30pm 20.1 E 6 6 1017.3 - 0.0 - - - - - - -
25/09:00pm 20.3 E 5 6 1017.4 - 0.0 - - - - - - -
25/08:30pm 20.4 NE 5 6 1017.2 - 0.0 - - - - - - -
25/08:00pm 20.4 NE 5 6 1016.9 - 0.0 - - - - - - -
25/07:30pm 20.4 E 6 7 1016.5 - 0.0 - - - - - - -
25/07:00pm 20.5 ENE 6 7 1016.3 - 0.0 - - - - - - -
25/06:30pm 20.6 ENE 6 7 1016.1 - 0.0 - - - - - - -
25/06:00pm 20.6 NE 5 6 1015.7 - 0.0 - - - - - - -
25/05:30pm 21.2 NE 5 9 1015.2 - 0.0 - - - - - - -
25/05:00pm 22.0 NE 7 10 1015.0 - 0.0 - - - - - - -
25/04:30pm 23.2 NE 7 13 1014.8 - 0.0 - - - - - - -
25/04:00pm 23.7 NE 8 13 1014.8 - 0.0 - - - - - - -
25/03:30pm 24.6 NE 8 12 1014.7 - 0.0 - - - - - - -
25/03:00pm 25.4 NE 7 11 1014.5 - 0.0 - - - - - - -
25/02:30pm 26.2 ENE 8 12 1014.5 - 0.0 - - - - - - -
25/02:00pm 25.9 NE 8 12 1014.5 - 0.0 - - - - - - -
25/01:30pm 28.2 NE 7 10 1014.9 - 0.0 - - - - - - -
25/01:00pm 29.4 NE 5 8 1015.5 - 0.0 - - - - - - -
25/12:30pm 28.4 NE 5 8 1015.8 - 0.0 - - - - - - -
25/12:00pm 27.8 ENE 2 6 1016.3 - 0.0 - - - - - - -
25/11:30am 27.5 W 3 5 1017.1 - 0.0 - - - - - - -
25/11:00am 26.0 W 3 5 1017.5 - 0.0 - - - - - - -
25/10:30am 24.8 SW 3 6 1018.0 - 0.0 - - - - - - -
25/10:00am 23.7 CALM 0 5 1018.2 - 0.0 - - - - - - -
25/09:30am 21.1 WSW 3 5 1018.4 - 0.0 - - - - - - -
25/09:00am 19.6 W 3 4 1018.5 - 0.0 - - - - - - -
25/08:30am 18.2 WSW 4 5 1018.3 - 0.0 - - - - - - -
25/08:00am 17.7 WSW 5 7 1017.9 - 0.0 - - - - - - -
25/07:30am 17.6 SW 6 9 1017.8 - 0.0 - - - - - - -
25/07:00am 17.4 SW 6 7 1017.6 - 0.0 - - - - - - -
25/06:30am 18.1 SSW 6 8 1017.4 - 0.0 - - - - - - -
25/06:00am 18.4 SSW 6 8 1017.2 - 0.0 - - - - - - -
25/05:30am 19.1 S 6 7 1016.9 - 0.0 - - - - - - -
25/05:00am 19.4 S 5 7 1016.4 - 0.0 - - - - - - -
25/04:30am 18.9 SW 4 5 1016.3 - 0.0 - - - - - - -
25/04:00am 19.6 SSW 4 6 1016.3 - 0.0 - - - - - - -
25/03:30am 20.6 S 6 8 1016.4 - 0.0 - - - - - - -
25/03:00am 20.4 SSW 6 8 1016.5 - 0.0 - - - - - - -
25/02:30am 21.0 S 7 9 1016.5 - 0.0 - - - - - - -
25/02:00am 21.3 S 7 9 1017.0 - 0.0 - - - - - - -
25/01:30am 21.6 SSE 8 11 1017.0 - 0.0 - - - - - - -
25/01:00am 22.0 S 8 10 1017.2 - 0.0 - - - - - - -
25/12:30am 22.4 SSW 6 8 1017.2 - 0.0 - - - - - - -
25/12:00am 22.3 SSW 6 8 1017.3 - 0.0 - - - - - - -
 
Date/Time
EST
Temp

°C
Wind Pressure Rain
since 9am
mm
Weather Cloud Vis
km
Sea
Height
m
Swell
Dir
 
Speed
knots
Gust
knots
hPa Trend Height
m
Period
s
Dir
24/11:30pm 21.8 SW 6 8 1017.4 - 0.0 - - - - - - -
24/11:00pm 22.0 SSW 4 7 1017.4 - 0.0 - - - - - - -
24/10:30pm 21.9 WNW 2 3 1017.3 - 0.0 - - - - - - -
24/10:00pm 22.7 NW 3 4 1017.3 - 0.0 - - - - - - -
24/09:30pm 22.2 WNW 3 4 1017.5 - 0.0 - - - - - - -
24/09:00pm 22.9 NNW 4 5 1017.5 - 0.0 - - - - - - -
24/08:30pm 22.2 W 3 4 1017.5 - 0.0 - - - - - - -
24/08:00pm 22.7 NNW 4 5 1017.4 - 0.0 - - - - - - -
24/07:30pm 22.8 ENE 3 4 1017.4 - 0.0 - - - - - - -
24/07:00pm 23.6 NNW 4 7 1017.0 - 0.0 - - - - - - -
24/06:30pm 23.3 N 4 6 1016.4 - 0.0 - - - - - - -
24/06:00pm 23.4 NNW 4 7 1016.2 - 0.0 - - - - - - -
24/05:30pm 23.6 N 5 8 1016.0 - 0.0 - - - - - - -
24/05:00pm 23.8 NE 6 9 1015.5 - 0.0 - - - - - - -
24/04:30pm 25.1 NE 7 10 1015.0 - 0.0 - - - - - - -
24/04:00pm 25.9 NE 6 10 1014.7 - 0.0 - - - - - - -
24/03:30pm 27.0 NE 6 9 1014.5 - 0.0 - - - - - - -
24/03:00pm 27.5 NE 6 9 1014.4 - 0.0 - - - - - - -
24/02:30pm 29.1 NE 6 9 1014.4 - 0.0 - - - - - - -
24/02:00pm 30.0 NE 5 8 1014.5 - 0.0 - - - - - - -
24/01:30pm 30.2 NE 5 8 1014.6 - 0.0 - - - - - - -
24/01:00pm 30.0 NNE 4 9 1014.9 - 0.0 - - - - - - -
24/12:30pm 28.7 SE 3 6 1015.4 - 0.0 - - - - - - -
24/12:00pm 27.9 S 2 6 1016.1 - 0.0 - - - - - - -
24/11:30am 28.2 ESE 3 7 1016.5 - 0.0 - - - - - - -
24/11:00am 26.6 W 1 4 1017.0 - 0.0 - - - - - - -
24/10:30am 24.0 SW 3 6 1017.5 - 0.0 - - - - - - -
24/10:00am 24.1 WSW 3 5 1017.9 - 0.0 - - - - - - -
24/09:30am 23.4 W 3 6 1018.1 - 0.0 - - - - - - -
24/09:00am 22.4 W 3 7 1018.2 - 0.0 - - - - - - -
24/08:30am 21.7 W 1 3 1018.1 - 0.0 - - - - - - -
24/08:00am 20.9 W 1 3 1017.8 - 0.0 - - - - - - -
24/07:30am 20.2 WSW 3 4 1017.3 - 0.0 - - - - - - -
24/07:00am 19.9 WSW 3 5 1017.4 - 0.0 - - - - - - -
24/06:30am 19.7 WSW 3 4 1017.3 - 0.0 - - - - - - -
24/06:00am 19.8 WSW 4 5 1016.9 - 0.0 - - - - - - -
24/05:30am 19.7 WSW 4 5 1017.0 - 0.0 - - - - - - -
24/05:00am 19.8 WSW 4 5 1016.9 - 0.0 - - - - - - -
24/04:30am 20.0 WSW 4 5 1016.7 - 0.0 - - - - - - -
24/04:00am 19.9 WSW 4 5 1016.7 - 0.0 - - - - - - -
24/03:30am 20.0 WSW 4 5 1017.1 - 0.0 - - - - - - -
24/03:00am 20.0 WSW 4 5 1017.2 - 0.0 - - - - - - -
24/02:30am 20.3 WSW 4 5 1017.1 - 0.0 - - - - - - -
24/02:00am 20.7 WSW 3 5 1017.2 - 0.0 - - - - - - -
24/01:30am 20.7 SW 3 4 1017.4 - 0.0 - - - - - - -
24/01:00am 20.7 WSW 3 4 1017.9 - 0.0 - - - - - - -
24/12:30am 20.7 WSW 3 5 1018.2 - 0.0 - - - - - - -
24/12:00am 20.6 WSW 3 5 1018.4 - 0.0 - - - - - - -
 
Date/Time
EST
Temp

°C
Wind Pressure Rain
since 9am
mm
Weather Cloud Vis
km
Sea
Height
m
Swell
Dir
 
Speed
knots
Gust
knots
hPa Trend Height
m
Period
s
Dir
23/11:30pm 20.7 WSW 3 4 1018.4 - 0.0 - - - - - - -
23/11:00pm 20.7 WSW 3 4 1018.5 - 0.0 - - - - - - -

Other Formats:

Comma delimited format used in spreadsheet applications
http://www.bom.gov.au/fwo/IDQ60701/IDQ60701.94380.axf

JavaScript Object Notation format (JSON) in row-major order
http://www.bom.gov.au/fwo/IDQ60701/IDQ60701.94380.json